Millisle, United Kingdom
Current Conditions -  °F | °C
As of 7:50 AM on Friday 19 Dec 2014 (Local Time) from EGAC Reporting Station
Scattered Clouds Scattered Clouds  
Wind Chill: 32°   Ceiling: Unl
Heat Index: 41°   Visibility: 6mi
Dew Point: 36°   Wind: 17mph
Humidity: 81%   Direction: 250°WSW
Pressure: 29.74"   Gusts: 32mph
Location:  54.61°N, 5.53°W
Report Text: EGAC 190750Z 25015G28KT 9999 FEW011 SCT025 05/02 Q1007
Loading
Personal Weather Stations






























Interactive Weather Map New forecast layout! Learn more

10-Day Weather Forecast

Advertisements
Track Severe Weather on mobile